Volgoneft-212 — UBQB-2 — position and weather

sailwx.info

Track history (hours):
 
Tides and Currents Weather Stations Pressure Air Temp Water Temp Dewpoint Dewpoint Depression Visibility Wind Speed Wind Dir Waves Ship Positions

Volgoneft-212

Last reported at 2017-Dec-08 06:35 UTC. Time now 2017-Dec-18 22:40 UTC.
Position N 45°34' E 036°50'.
Warning: this ship's position is 10 days out of date.

Length 136 m; draft 2.6 m.

Type: Ship. MMSI: 273333930.

Date/timePositionNaut miles runAvg speedWind from/ knotsBaromVisibWave heightAir tempDewpointWater temp
2017-Dec-08 06:35N 45°34' E 036°50'2 5.8
2017-Dec-08 06:18N 45°33' E 036°49'2 5.7
2017-Dec-08 06:00N 45°31' E 036°48'2 4.3
2017-Dec-08 05:30N 45°29' E 036°47'0 0.6
2017-Dec-08 04:52N 45°29' E 036°46'0 0.0
2017-Dec-08 04:28N 45°29' E 036°46'0 0.0
2017-Dec-08 03:58N 45°29' E 036°46'0 0.0
2017-Dec-08 03:19N 45°29' E 036°46'0 0.0
2017-Dec-08 02:58N 45°29' E 036°46'0 0.0
2017-Dec-08 01:43N 45°29' E 036°46'0 0.0
2017-Dec-08 01:25N 45°29' E 036°46'0 0.0
2017-Dec-08 00:58N 45°29' E 036°46'0 0.0
2017-Dec-08 00:22N 45°29' E 036°46'0 0.0
2017-Dec-07 23:58N 45°29' E 036°46'0 0.0
2017-Dec-07 23:10N 45°29' E 036°46'0 0.0
2017-Dec-07 22:40N 45°29' E 036°46'0 0.0
2017-Dec-07 22:16N 45°29' E 036°46'0 0.0
2017-Dec-07 21:46N 45°29' E 036°46'0 0.0
2017-Dec-07 21:16N 45°29' E 036°46'0 0.0
2017-Dec-07 20:46N 45°29' E 036°46'0 0.0
2017-Dec-07 20:10N 45°29' E 036°46'0 0.0
2017-Dec-07 19:55N 45°29' E 036°46'0 0.0
2017-Dec-07 19:25N 45°29' E 036°46'0 0.0
2017-Dec-07 18:58N 45°29' E 036°46'0 0.0
2017-Dec-07 17:34N 45°29' E 036°46'0 0.1
2017-Dec-07 17:25N 45°29' E 036°46'0 0.0
2017-Dec-07 16:55N 45°29' E 036°46'0 0.0
2017-Dec-07 16:22N 45°29' E 036°46'0 0.0
2017-Dec-07 15:58N 45°29' E 036°46'0 0.0
2017-Dec-07 15:28N 45°29' E 036°46'0 0.0
2017-Dec-07 14:58N 45°29' E 036°46'0 0.0
2017-Dec-07 14:25N 45°29' E 036°46'0 0.0
2017-Dec-07 13:43N 45°29' E 036°46'0 0.1
2017-Dec-07 13:28N 45°29' E 036°46'0 0.0
2017-Dec-07 12:55N 45°29' E 036°46'0 0.0
2017-Dec-07 12:28N 45°29' E 036°46'0 0.0
2017-Dec-07 11:52N 45°29' E 036°46'0 0.0
2017-Dec-07 11:28N 45°29' E 036°46'0 0.0
2017-Dec-07 10:52N 45°29' E 036°46'0 0.0
2017-Dec-07 10:25N 45°29' E 036°46'0 0.0
2017-Dec-07 09:52N 45°29' E 036°46'0 0.0
2017-Dec-07 09:22N 45°29' E 036°46'0 0.0
2017-Dec-07 08:52N 45°29' E 036°46'0 0.0
2017-Dec-07 08:28N 45°29' E 036°46'0 0.0
2017-Dec-07 07:58N 45°29' E 036°46'0 0.0
2017-Dec-07 07:28N 45°29' E 036°46'0 0.0
2017-Dec-07 06:52N 45°29' E 036°46'0 0.0
2017-Dec-07 06:19N 45°29' E 036°46'0 0.0
2017-Dec-07 05:58N 45°29' E 036°46'0 0.0
2017-Dec-07 05:28N 45°29' E 036°46'0 0.0
2017-Dec-07 04:52N 45°29' E 036°46'0 0.0
2017-Dec-07 04:16N 45°29' E 036°46'0 0.0
2017-Dec-07 03:40N 45°29' E 036°46'0 0.0
2017-Dec-07 03:28N 45°29' E 036°46'0 0.0
2017-Dec-07 00:19N 45°29' E 036°46'0 0.0
2017-Dec-06 23:55N 45°29' E 036°46'0 0.0
2017-Dec-06 23:28N 45°29' E 036°46'0 0.0
2017-Dec-06 22:55N 45°29' E 036°46'0 0.0
2017-Dec-06 22:25N 45°29' E 036°46'0 0.0
2017-Dec-06 21:55N 45°29' E 036°46'0 0.0
2017-Dec-06 21:13N 45°29' E 036°46'  
2017-Dec-04 10:08N 45°06' E 036°35'1 0.3
2017-Dec-04 08:04N 45°06' E 036°35'0 0.2
2017-Dec-04 07:53N 45°06' E 036°35'1 1.1
2017-Dec-04 07:24N 45°06' E 036°35'0 0.0
2017-Dec-04 06:56N 45°06' E 036°35'0 0.5
2017-Dec-04 06:30N 45°06' E 036°35'1 0.1
2017-Dec-04 00:14N 45°06' E 036°35'1 4.2
2017-Dec-04 00:00N 45°07' E 036°34'2 4.8
2017-Dec-03 23:30N 45°09' E 036°34'2 3.7
2017-Dec-03 22:58N 45°11' E 036°34'0 0.0
2017-Dec-03 22:13N 45°11' E 036°34'0 0.0
2017-Dec-03 21:58N 45°11' E 036°34'0 0.0
2017-Dec-03 21:25N 45°11' E 036°34'0 0.0
2017-Dec-03 20:58N 45°11' E 036°34'0 0.0
2017-Dec-03 20:28N 45°11' E 036°34'0 0.3
2017-Dec-03 20:00N 45°11' E 036°34'3 4.3
2017-Dec-03 19:19N 45°08' E 036°35'2 6.1
2017-Dec-03 18:59N 45°06' E 036°35'0 0.2
2017-Dec-03 17:22N 45°06' E 036°35'0 0.0
2017-Dec-03 16:24N 45°06' E 036°35'0 0.0
2017-Dec-03 15:50N 45°06' E 036°35'0 0.0
2017-Dec-03 15:29N 45°06' E 036°35'0 0.0
2017-Dec-03 14:50N 45°06' E 036°35'0 0.0
2017-Dec-03 14:17N 45°06' E 036°35'0 0.0
2017-Dec-03 13:50N 45°06' E 036°35'0 0.0
2017-Dec-03 13:31N 45°06' E 036°35'0 0.0
2017-Dec-03 12:58N 45°06' E 036°35'0 0.0
2017-Dec-03 12:17N 45°06' E 036°35'0 0.0
2017-Dec-03 09:51N 45°06' E 036°35'0 0.8
2017-Dec-03 09:28N 45°06' E 036°35'2 4.0
2017-Dec-03 09:00N 45°07' E 036°33'4 5.5
2017-Dec-03 08:20N 45°09' E 036°28'1 3.6
2017-Dec-03 07:58N 45°10' E 036°28'2 4.7
2017-Dec-03 07:30N 45°12' E 036°27'1 0.0
2017-Dec-02 10:49N 45°13' E 036°26'0 0.0
2017-Dec-02 10:22N 45°13' E 036°26'0 0.0
2017-Dec-02 09:58N 45°13' E 036°26'0 0.0
2017-Dec-01 13:19N 45°13' E 036°26'0 0.0
2017-Dec-01 12:55N 45°13' E 036°26'0 0.0
2017-Dec-01 11:40N 45°13' E 036°27'0 0.0
2017-Dec-01 11:04N 45°13' E 036°26'0 0.0
2017-Nov-30 14:25N 45°13' E 036°27'0 0.0
2017-Nov-30 13:55N 45°13' E 036°27'0 0.0
2017-Nov-30 13:22N 45°13' E 036°27'0 0.0
2017-Nov-30 12:55N 45°13' E 036°27'0 0.0
2017-Nov-30 12:22N 45°13' E 036°27'0 0.0
2017-Nov-30 11:55N 45°13' E 036°27'0 0.0
2017-Nov-30 11:22N 45°13' E 036°27'0 0.0
2017-Nov-30 10:58N 45°13' E 036°27'0 0.0
2017-Nov-30 10:01N 45°13' E 036°27'0 0.1
2017-Nov-30 09:58N 45°13' E 036°27'0 0.0
2017-Nov-30 09:28N 45°13' E 036°27'0 0.0
2017-Nov-30 07:34N 45°13' E 036°27'0 0.0
2017-Nov-30 07:28N 45°13' E 036°27'0 0.0
2017-Nov-30 06:52N 45°13' E 036°27'0 0.0
2017-Nov-30 06:25N 45°13' E 036°27'0 0.0
2017-Nov-30 05:46N 45°13' E 036°27'0 0.0
2017-Nov-30 05:28N 45°13' E 036°27'0 0.0
2017-Nov-30 04:55N 45°13' E 036°27'0 0.0
2017-Nov-29 19:46N 45°13' E 036°27'0 0.0
2017-Nov-29 17:10N 45°13' E 036°27'0 0.0
2017-Nov-29 16:52N 45°13' E 036°27'0 0.0
2017-Nov-29 12:13N 45°13' E 036°26'0 0.0
2017-Nov-29 11:01N 45°13' E 036°26'0 0.0
2017-Nov-29 10:43N 45°13' E 036°26'0 0.0
2017-Nov-29 07:58N 45°13' E 036°26'0 0.0
2017-Nov-29 07:19N 45°13' E 036°26'0 0.0
2017-Nov-29 06:55N 45°13' E 036°26'0 0.0
2017-Nov-29 00:22N 45°13' E 036°26'  
Track history (hours):
 
Tides and Currents Weather Stations Pressure Air Temp Water Temp Dewpoint Dewpoint Depression Visibility Wind Speed Wind Dir Waves Ship Positions

Volgoneft-212

Last reported at 2017-Dec-08 06:35 UTC. Time now 2017-Dec-18 22:40 UTC.
Position N 45°34' E 036°50'.
Warning: this ship's position is 10 days out of date.

Length 136 m; draft 2.6 m.

Type: Ship. MMSI: 273333930.

Date/timePositionNaut miles runAvg speedWind from/ knotsBaromVisibWave heightAir tempDewpointWater temp
2017-Dec-08 06:35N 45°34' E 036°50'2 5.8
2017-Dec-08 06:18N 45°33' E 036°49'2 5.7
2017-Dec-08 06:00N 45°31' E 036°48'2 4.3
2017-Dec-08 05:30N 45°29' E 036°47'0 0.6
2017-Dec-08 04:52N 45°29' E 036°46'0 0.0
2017-Dec-08 04:28N 45°29' E 036°46'0 0.0
2017-Dec-08 03:58N 45°29' E 036°46'0 0.0
2017-Dec-08 03:19N 45°29' E 036°46'0 0.0
2017-Dec-08 02:58N 45°29' E 036°46'0 0.0
2017-Dec-08 01:43N 45°29' E 036°46'0 0.0
2017-Dec-08 01:25N 45°29' E 036°46'0 0.0
2017-Dec-08 00:58N 45°29' E 036°46'0 0.0
2017-Dec-08 00:22N 45°29' E 036°46'0 0.0
2017-Dec-07 23:58N 45°29' E 036°46'0 0.0
2017-Dec-07 23:10N 45°29' E 036°46'0 0.0
2017-Dec-07 22:40N 45°29' E 036°46'0 0.0
2017-Dec-07 22:16N 45°29' E 036°46'0 0.0
2017-Dec-07 21:46N 45°29' E 036°46'0 0.0
2017-Dec-07 21:16N 45°29' E 036°46'0 0.0
2017-Dec-07 20:46N 45°29' E 036°46'0 0.0
2017-Dec-07 20:10N 45°29' E 036°46'0 0.0
2017-Dec-07 19:55N 45°29' E 036°46'0 0.0
2017-Dec-07 19:25N 45°29' E 036°46'0 0.0
2017-Dec-07 18:58N 45°29' E 036°46'0 0.0
2017-Dec-07 17:34N 45°29' E 036°46'0 0.1
2017-Dec-07 17:25N 45°29' E 036°46'0 0.0
2017-Dec-07 16:55N 45°29' E 036°46'0 0.0
2017-Dec-07 16:22N 45°29' E 036°46'0 0.0
2017-Dec-07 15:58N 45°29' E 036°46'0 0.0
2017-Dec-07 15:28N 45°29' E 036°46'0 0.0
2017-Dec-07 14:58N 45°29' E 036°46'0 0.0
2017-Dec-07 14:25N 45°29' E 036°46'0 0.0
2017-Dec-07 13:43N 45°29' E 036°46'0 0.1
2017-Dec-07 13:28N 45°29' E 036°46'0 0.0
2017-Dec-07 12:55N 45°29' E 036°46'0 0.0
2017-Dec-07 12:28N 45°29' E 036°46'0 0.0
2017-Dec-07 11:52N 45°29' E 036°46'0 0.0
2017-Dec-07 11:28N 45°29' E 036°46'0 0.0
2017-Dec-07 10:52N 45°29' E 036°46'0 0.0
2017-Dec-07 10:25N 45°29' E 036°46'0 0.0
2017-Dec-07 09:52N 45°29' E 036°46'0 0.0
2017-Dec-07 09:22N 45°29' E 036°46'0 0.0
2017-Dec-07 08:52N 45°29' E 036°46'0 0.0
2017-Dec-07 08:28N 45°29' E 036°46'0 0.0
2017-Dec-07 07:58N 45°29' E 036°46'0 0.0
2017-Dec-07 07:28N 45°29' E 036°46'0 0.0
2017-Dec-07 06:52N 45°29' E 036°46'0 0.0
2017-Dec-07 06:19N 45°29' E 036°46'0 0.0
2017-Dec-07 05:58N 45°29' E 036°46'0 0.0
2017-Dec-07 05:28N 45°29' E 036°46'0 0.0
2017-Dec-07 04:52N 45°29' E 036°46'0 0.0
2017-Dec-07 04:16N 45°29' E 036°46'0 0.0
2017-Dec-07 03:40N 45°29' E 036°46'0 0.0
2017-Dec-07 03:28N 45°29' E 036°46'0 0.0
2017-Dec-07 00:19N 45°29' E 036°46'0 0.0
2017-Dec-06 23:55N 45°29' E 036°46'0 0.0
2017-Dec-06 23:28N 45°29' E 036°46'0 0.0
2017-Dec-06 22:55N 45°29' E 036°46'0 0.0
2017-Dec-06 22:25N 45°29' E 036°46'0 0.0
2017-Dec-06 21:55N 45°29' E 036°46'0 0.0
2017-Dec-06 21:13N 45°29' E 036°46'  
2017-Dec-04 10:08N 45°06' E 036°35'1 0.3
2017-Dec-04 08:04N 45°06' E 036°35'0 0.2
2017-Dec-04 07:53N 45°06' E 036°35'1 1.1
2017-Dec-04 07:24N 45°06' E 036°35'0 0.0
2017-Dec-04 06:56N 45°06' E 036°35'0 0.5
2017-Dec-04 06:30N 45°06' E 036°35'1 0.1
2017-Dec-04 00:14N 45°06' E 036°35'1 4.2
2017-Dec-04 00:00N 45°07' E 036°34'2 4.8
2017-Dec-03 23:30N 45°09' E 036°34'2 3.7
2017-Dec-03 22:58N 45°11' E 036°34'0 0.0
2017-Dec-03 22:13N 45°11' E 036°34'0 0.0
2017-Dec-03 21:58N 45°11' E 036°34'0 0.0
2017-Dec-03 21:25N 45°11' E 036°34'0 0.0
2017-Dec-03 20:58N 45°11' E 036°34'0 0.0
2017-Dec-03 20:28N 45°11' E 036°34'0 0.3
2017-Dec-03 20:00N 45°11' E 036°34'3 4.3
2017-Dec-03 19:19N 45°08' E 036°35'2 6.1
2017-Dec-03 18:59N 45°06' E 036°35'0 0.2
2017-Dec-03 17:22N 45°06' E 036°35'0 0.0
2017-Dec-03 16:24N 45°06' E 036°35'0 0.0
2017-Dec-03 15:50N 45°06' E 036°35'0 0.0
2017-Dec-03 15:29N 45°06' E 036°35'0 0.0
2017-Dec-03 14:50N 45°06' E 036°35'0 0.0
2017-Dec-03 14:17N 45°06' E 036°35'0 0.0
2017-Dec-03 13:50N 45°06' E 036°35'0 0.0
2017-Dec-03 13:31N 45°06' E 036°35'0 0.0
2017-Dec-03 12:58N 45°06' E 036°35'0 0.0
2017-Dec-03 12:17N 45°06' E 036°35'0 0.0
2017-Dec-03 09:51N 45°06' E 036°35'0 0.8
2017-Dec-03 09:28N 45°06' E 036°35'2 4.0
2017-Dec-03 09:00N 45°07' E 036°33'4 5.5
2017-Dec-03 08:20N 45°09' E 036°28'1 3.6
2017-Dec-03 07:58N 45°10' E 036°28'2 4.7
2017-Dec-03 07:30N 45°12' E 036°27'1 0.0
2017-Dec-02 10:49N 45°13' E 036°26'0 0.0
2017-Dec-02 10:22N 45°13' E 036°26'0 0.0
2017-Dec-02 09:58N 45°13' E 036°26'0 0.0
2017-Dec-01 13:19N 45°13' E 036°26'0 0.0
2017-Dec-01 12:55N 45°13' E 036°26'0 0.0
2017-Dec-01 11:40N 45°13' E 036°27'0 0.0
2017-Dec-01 11:04N 45°13' E 036°26'0 0.0
2017-Nov-30 14:25N 45°13' E 036°27'0 0.0
2017-Nov-30 13:55N 45°13' E 036°27'0 0.0
2017-Nov-30 13:22N 45°13' E 036°27'0 0.0
2017-Nov-30 12:55N 45°13' E 036°27'0 0.0
2017-Nov-30 12:22N 45°13' E 036°27'0 0.0
2017-Nov-30 11:55N 45°13' E 036°27'0 0.0
2017-Nov-30 11:22N 45°13' E 036°27'0 0.0
2017-Nov-30 10:58N 45°13' E 036°27'0 0.0
2017-Nov-30 10:01N 45°13' E 036°27'0 0.1
2017-Nov-30 09:58N 45°13' E 036°27'0 0.0
2017-Nov-30 09:28N 45°13' E 036°27'0 0.0
2017-Nov-30 07:34N 45°13' E 036°27'0 0.0
2017-Nov-30 07:28N 45°13' E 036°27'0 0.0
2017-Nov-30 06:52N 45°13' E 036°27'0 0.0
2017-Nov-30 06:25N 45°13' E 036°27'0 0.0
2017-Nov-30 05:46N 45°13' E 036°27'0 0.0
2017-Nov-30 05:28N 45°13' E 036°27'0 0.0
2017-Nov-30 04:55N 45°13' E 036°27'0 0.0
2017-Nov-29 19:46N 45°13' E 036°27'0 0.0
2017-Nov-29 17:10N 45°13' E 036°27'0 0.0
2017-Nov-29 16:52N 45°13' E 036°27'0 0.0
2017-Nov-29 12:13N 45°13' E 036°26'0 0.0
2017-Nov-29 11:01N 45°13' E 036°26'0 0.0
2017-Nov-29 10:43N 45°13' E 036°26'0 0.0
2017-Nov-29 07:58N 45°13' E 036°26'0 0.0
2017-Nov-29 07:19N 45°13' E 036°26'0 0.0
2017-Nov-29 06:55N 45°13' E 036°26'0 0.0
2017-Nov-29 00:22N 45°13' E 036°26'  

Dump ship's entire track history